sensor_id;sensor_type;location;lat;lon;timestamp;P1;durP1;ratioP1;P2;durP2;ratioP2
69036;SDS011;58547;51.690;5.186;2022-09-27T00:01:50;6.55;;;1.13;;
69036;SDS011;58547;51.690;5.186;2022-09-27T00:04:15;7.90;;;1.85;;
69036;SDS011;58547;51.690;5.186;2022-09-27T00:06:40;6.63;;;1.00;;
69036;SDS011;58547;51.690;5.186;2022-09-27T00:09:06;1.60;;;1.00;;
69036;SDS011;58547;51.690;5.186;2022-09-27T00:11:35;11.65;;;1.70;;
69036;SDS011;58547;51.690;5.186;2022-09-27T00:14:03;7.45;;;2.95;;
69036;SDS011;58547;51.690;5.186;2022-09-27T00:16:30;8.27;;;1.08;;
69036;SDS011;58547;51.690;5.186;2022-09-27T00:19:02;8.00;;;1.25;;
69036;SDS011;58547;51.690;5.186;2022-09-27T00:21:30;6.93;;;1.52;;
69036;SDS011;58547;51.690;5.186;2022-09-27T00:23:56;7.47;;;1.42;;
69036;SDS011;58547;51.690;5.186;2022-09-27T00:26:23;7.80;;;1.42;;
69036;SDS011;58547;51.690;5.186;2022-09-27T00:28:48;5.03;;;1.15;;
69036;SDS011;58547;51.690;5.186;2022-09-27T00:31:18;2.60;;;1.10;;
69036;SDS011;58547;51.690;5.186;2022-09-27T00:33:49;3.13;;;1.10;;
69036;SDS011;58547;51.690;5.186;2022-09-27T00:36:18;7.65;;;1.00;;
69036;SDS011;58547;51.690;5.186;2022-09-27T00:38:44;6.22;;;1.10;;
69036;SDS011;58547;51.690;5.186;2022-09-27T00:41:12;8.73;;;2.03;;
69036;SDS011;58547;51.690;5.186;2022-09-27T00:43:51;6.68;;;1.10;;
69036;SDS011;58547;51.690;5.186;2022-09-27T00:46:28;12.25;;;1.35;;
69036;SDS011;58547;51.690;5.186;2022-09-27T00:49:12;4.38;;;1.85;;
69036;SDS011;58547;51.690;5.186;2022-09-27T00:51:47;3.53;;;1.42;;
69036;SDS011;58547;51.690;5.186;2022-09-27T00:54:16;7.13;;;1.25;;
69036;SDS011;58547;51.690;5.186;2022-09-27T00:56:44;2.67;;;0.73;;
69036;SDS011;58547;51.690;5.186;2022-09-27T00:59:11;2.20;;;1.00;;
69036;SDS011;58547;51.690;5.186;2022-09-27T01:01:41;7.20;;;1.05;;
69036;SDS011;58547;51.690;5.186;2022-09-27T01:04:08;2.80;;;1.50;;
69036;SDS011;58547;51.690;5.186;2022-09-27T01:06:35;2.55;;;0.77;;
69036;SDS011;58547;51.690;5.186;2022-09-27T01:14:18;7.07;;;1.27;;
69036;SDS011;58547;51.690;5.186;2022-09-27T01:38:18;6.50;;;1.17;;
69036;SDS011;58547;51.690;5.186;2022-09-27T01:40:57;7.70;;;1.20;;
69036;SDS011;58547;51.690;5.186;2022-09-27T01:43:39;6.30;;;1.05;;
69036;SDS011;58547;51.690;5.186;2022-09-27T01:46:19;7.43;;;1.17;;
69036;SDS011;58547;51.690;5.186;2022-09-27T01:48:49;8.00;;;1.25;;
69036;SDS011;58547;51.690;5.186;2022-09-27T01:51:17;5.72;;;1.30;;
69036;SDS011;58547;51.690;5.186;2022-09-27T01:53:47;6.13;;;0.82;;
69036;SDS011;58547;51.690;5.186;2022-09-27T01:56:23;3.83;;;1.20;;
69036;SDS011;58547;51.690;5.186;2022-09-27T01:58:56;8.63;;;1.45;;
69036;SDS011;58547;51.690;5.186;2022-09-27T02:01:29;4.05;;;0.90;;
69036;SDS011;58547;51.690;5.186;2022-09-27T02:03:57;8.60;;;1.48;;
69036;SDS011;58547;51.690;5.186;2022-09-27T02:06:30;5.10;;;1.58;;
69036;SDS011;58547;51.690;5.186;2022-09-27T02:09:05;5.00;;;0.93;;
69036;SDS011;58547;51.690;5.186;2022-09-27T02:11:34;7.53;;;1.42;;
69036;SDS011;58547;51.690;5.186;2022-09-27T02:22:15;5.30;;;1.35;;
69036;SDS011;58547;51.690;5.186;2022-09-27T02:30:24;8.00;;;1.63;;
69036;SDS011;58547;51.690;5.186;2022-09-27T02:32:49;6.57;;;1.45;;
69036;SDS011;58547;51.690;5.186;2022-09-27T02:37:45;6.63;;;1.60;;
69036;SDS011;58547;51.690;5.186;2022-09-27T02:40:11;2.90;;;1.13;;
69036;SDS011;58547;51.690;5.186;2022-09-27T02:42:37;7.57;;;1.63;;
69036;SDS011;58547;51.690;5.186;2022-09-27T02:45:03;6.68;;;1.98;;
69036;SDS011;58547;51.690;5.186;2022-09-27T02:50:36;5.00;;;1.15;;
69036;SDS011;58547;51.690;5.186;2022-09-27T02:53:08;5.40;;;1.25;;
69036;SDS011;58547;51.690;5.186;2022-09-27T03:03:22;6.47;;;1.27;;
69036;SDS011;58547;51.690;5.186;2022-09-27T03:06:05;7.10;;;1.35;;
69036;SDS011;58547;51.690;5.186;2022-09-27T03:08:35;3.03;;;1.17;;
69036;SDS011;58547;51.690;5.186;2022-09-27T03:11:01;2.90;;;0.70;;
69036;SDS011;58547;51.690;5.186;2022-09-27T03:13:27;6.97;;;2.07;;
69036;SDS011;58547;51.690;5.186;2022-09-27T03:15:52;6.20;;;1.43;;
69036;SDS011;58547;51.690;5.186;2022-09-27T03:18:17;5.23;;;1.50;;
69036;SDS011;58547;51.690;5.186;2022-09-27T03:20:43;9.50;;;1.98;;
69036;SDS011;58547;51.690;5.186;2022-09-27T03:23:08;3.67;;;1.70;;
69036;SDS011;58547;51.690;5.186;2022-09-27T03:25:34;13.35;;;1.95;;
69036;SDS011;58547;51.690;5.186;2022-09-27T03:27:59;8.98;;;1.80;;
69036;SDS011;58547;51.690;5.186;2022-09-27T03:30:24;8.02;;;1.80;;
69036;SDS011;58547;51.690;5.186;2022-09-27T03:32:50;17.48;;;2.13;;
69036;SDS011;58547;51.690;5.186;2022-09-27T03:35:15;11.48;;;2.72;;
69036;SDS011;58547;51.690;5.186;2022-09-27T03:37:41;13.93;;;2.25;;
69036;SDS011;58547;51.690;5.186;2022-09-27T03:40:06;6.03;;;1.40;;
69036;SDS011;58547;51.690;5.186;2022-09-27T03:42:33;3.05;;;1.00;;
69036;SDS011;58547;51.690;5.186;2022-09-27T03:44:59;7.82;;;1.25;;
69036;SDS011;58547;51.690;5.186;2022-09-27T03:47:24;3.30;;;1.30;;
69036;SDS011;58547;51.690;5.186;2022-09-27T03:49:50;8.40;;;1.55;;
69036;SDS011;58547;51.690;5.186;2022-09-27T03:52:16;8.70;;;1.30;;
69036;SDS011;58547;51.690;5.186;2022-09-27T03:54:42;7.78;;;2.47;;
69036;SDS011;58547;51.690;5.186;2022-09-27T03:57:08;4.22;;;1.48;;
69036;SDS011;58547;51.690;5.186;2022-09-27T03:59:33;6.33;;;1.50;;
69036;SDS011;58547;51.690;5.186;2022-09-27T04:01:59;6.00;;;1.17;;
69036;SDS011;58547;51.690;5.186;2022-09-27T04:04:24;8.23;;;1.47;;
69036;SDS011;58547;51.690;5.186;2022-09-27T04:06:49;3.80;;;1.20;;
69036;SDS011;58547;51.690;5.186;2022-09-27T04:09:15;6.67;;;1.60;;
69036;SDS011;58547;51.690;5.186;2022-09-27T04:11:41;8.00;;;2.15;;
69036;SDS011;58547;51.690;5.186;2022-09-27T04:14:06;5.80;;;1.47;;
69036;SDS011;58547;51.690;5.186;2022-09-27T04:16:33;5.50;;;1.30;;
69036;SDS011;58547;51.690;5.186;2022-09-27T04:21:27;8.25;;;2.00;;
69036;SDS011;58547;51.690;5.186;2022-09-27T04:23:52;3.87;;;1.23;;
69036;SDS011;58547;51.690;5.186;2022-09-27T04:26:18;5.70;;;1.30;;
69036;SDS011;58547;51.690;5.186;2022-09-27T04:28:45;2.78;;;0.93;;
69036;SDS011;58547;51.690;5.186;2022-09-27T04:31:10;3.97;;;1.05;;
69036;SDS011;58547;51.690;5.186;2022-09-27T04:33:35;2.20;;;0.83;;
69036;SDS011;58547;51.690;5.186;2022-09-27T04:36:01;7.97;;;1.80;;
69036;SDS011;58547;51.690;5.186;2022-09-27T04:38:45;5.05;;;1.08;;
69036;SDS011;58547;51.690;5.186;2022-09-27T04:41:12;4.97;;;1.02;;
69036;SDS011;58547;51.690;5.186;2022-09-27T04:43:37;3.75;;;1.40;;
69036;SDS011;58547;51.690;5.186;2022-09-27T04:46:03;5.50;;;1.25;;
69036;SDS011;58547;51.690;5.186;2022-09-27T04:48:28;9.13;;;1.90;;
69036;SDS011;58547;51.690;5.186;2022-09-27T04:50:57;2.57;;;1.00;;
69036;SDS011;58547;51.690;5.186;2022-09-27T04:53:24;3.28;;;0.80;;
69036;SDS011;58547;51.690;5.186;2022-09-27T04:55:51;3.45;;;1.15;;
69036;SDS011;58547;51.690;5.186;2022-09-27T04:58:18;4.93;;;1.20;;
69036;SDS011;58547;51.690;5.186;2022-09-27T05:00:43;4.97;;;0.90;;
69036;SDS011;58547;51.690;5.186;2022-09-27T05:03:10;8.40;;;1.30;;
69036;SDS011;58547;51.690;5.186;2022-09-27T05:05:36;9.77;;;1.90;;
69036;SDS011;58547;51.690;5.186;2022-09-27T05:08:01;4.87;;;0.90;;
69036;SDS011;58547;51.690;5.186;2022-09-27T05:10:26;5.18;;;1.20;;
69036;SDS011;58547;51.690;5.186;2022-09-27T05:12:52;5.50;;;1.07;;
69036;SDS011;58547;51.690;5.186;2022-09-27T05:15:17;5.60;;;1.10;;
69036;SDS011;58547;51.690;5.186;2022-09-27T05:17:42;5.00;;;1.50;;
69036;SDS011;58547;51.690;5.186;2022-09-27T05:20:09;6.13;;;2.22;;
69036;SDS011;58547;51.690;5.186;2022-09-27T05:22:34;15.30;;;6.25;;
69036;SDS011;58547;51.690;5.186;2022-09-27T05:24:59;5.73;;;1.70;;
69036;SDS011;58547;51.690;5.186;2022-09-27T05:27:25;1.83;;;1.10;;
69036;SDS011;58547;51.690;5.186;2022-09-27T05:29:50;4.83;;;1.20;;
69036;SDS011;58547;51.690;5.186;2022-09-27T05:32:15;3.17;;;1.13;;
69036;SDS011;58547;51.690;5.186;2022-09-27T05:34:41;7.22;;;1.90;;
69036;SDS011;58547;51.690;5.186;2022-09-27T05:37:06;6.82;;;1.38;;
69036;SDS011;58547;51.690;5.186;2022-09-27T05:39:32;3.65;;;1.13;;
69036;SDS011;58547;51.690;5.186;2022-09-27T05:41:57;7.10;;;1.60;;
69036;SDS011;58547;51.690;5.186;2022-09-27T05:44:23;6.25;;;1.00;;
69036;SDS011;58547;51.690;5.186;2022-09-27T05:46:49;3.50;;;1.30;;
69036;SDS011;58547;51.690;5.186;2022-09-27T05:49:15;3.88;;;1.80;;
69036;SDS011;58547;51.690;5.186;2022-09-27T05:51:40;8.00;;;1.50;;
69036;SDS011;58547;51.690;5.186;2022-09-27T05:54:06;4.07;;;1.90;;
69036;SDS011;58547;51.690;5.186;2022-09-27T05:56:31;15.37;;;2.07;;
69036;SDS011;58547;51.690;5.186;2022-09-27T05:58:56;3.40;;;1.57;;
69036;SDS011;58547;51.690;5.186;2022-09-27T06:01:22;9.48;;;2.17;;
69036;SDS011;58547;51.690;5.186;2022-09-27T06:03:50;4.55;;;1.80;;
69036;SDS011;58547;51.690;5.186;2022-09-27T06:06:17;3.65;;;1.40;;
69036;SDS011;58547;51.690;5.186;2022-09-27T06:08:42;2.60;;;1.38;;
69036;SDS011;58547;51.690;5.186;2022-09-27T06:11:09;5.93;;;1.85;;
69036;SDS011;58547;51.690;5.186;2022-09-27T06:13:37;4.47;;;2.00;;
69036;SDS011;58547;51.690;5.186;2022-09-27T06:16:04;4.07;;;1.20;;
69036;SDS011;58547;51.690;5.186;2022-09-27T06:18:30;1.95;;;1.20;;
69036;SDS011;58547;51.690;5.186;2022-09-27T06:20:59;3.35;;;1.55;;
69036;SDS011;58547;51.690;5.186;2022-09-27T06:23:26;3.90;;;1.38;;
69036;SDS011;58547;51.690;5.186;2022-09-27T06:25:51;7.38;;;1.58;;
69036;SDS011;58547;51.690;5.186;2022-09-27T06:28:17;4.10;;;2.10;;
69036;SDS011;58547;51.690;5.186;2022-09-27T06:30:44;5.45;;;3.00;;
69036;SDS011;58547;51.690;5.186;2022-09-27T06:33:11;5.53;;;1.77;;
69036;SDS011;58547;51.690;5.186;2022-09-27T06:35:39;5.97;;;2.17;;
69036;SDS011;58547;51.690;5.186;2022-09-27T06:38:06;5.50;;;1.80;;
69036;SDS011;58547;51.690;5.186;2022-09-27T06:40:34;3.85;;;1.60;;
69036;SDS011;58547;51.690;5.186;2022-09-27T06:43:01;5.32;;;1.65;;
69036;SDS011;58547;51.690;5.186;2022-09-27T06:45:32;2.88;;;2.03;;
69036;SDS011;58547;51.690;5.186;2022-09-27T06:47:58;4.40;;;1.75;;
69036;SDS011;58547;51.690;5.186;2022-09-27T06:50:27;5.47;;;1.95;;
69036;SDS011;58547;51.690;5.186;2022-09-27T06:52:54;2.15;;;1.45;;
69036;SDS011;58547;51.690;5.186;2022-09-27T06:55:19;4.82;;;2.15;;
69036;SDS011;58547;51.690;5.186;2022-09-27T06:57:45;9.00;;;2.35;;
69036;SDS011;58547;51.690;5.186;2022-09-27T07:00:28;3.92;;;2.05;;
69036;SDS011;58547;51.690;5.186;2022-09-27T07:02:55;5.82;;;2.00;;
69036;SDS011;58547;51.690;5.186;2022-09-27T07:05:25;8.32;;;2.10;;
69036;SDS011;58547;51.690;5.186;2022-09-27T07:07:51;8.50;;;2.10;;
69036;SDS011;58547;51.690;5.186;2022-09-27T07:10:25;8.05;;;2.00;;
69036;SDS011;58547;51.690;5.186;2022-09-27T07:12:55;5.05;;;1.50;;
69036;SDS011;58547;51.690;5.186;2022-09-27T07:15:22;5.68;;;2.00;;
69036;SDS011;58547;51.690;5.186;2022-09-27T07:17:54;2.60;;;1.80;;
69036;SDS011;58547;51.690;5.186;2022-09-27T07:20:21;7.18;;;3.42;;
69036;SDS011;58547;51.690;5.186;2022-09-27T07:22:47;4.23;;;1.80;;
69036;SDS011;58547;51.690;5.186;2022-09-27T07:25:13;4.35;;;1.90;;
69036;SDS011;58547;51.690;5.186;2022-09-27T07:27:38;6.88;;;2.45;;
69036;SDS011;58547;51.690;5.186;2022-09-27T07:30:06;2.95;;;1.85;;
69036;SDS011;58547;51.690;5.186;2022-09-27T07:32:36;7.50;;;3.10;;
69036;SDS011;58547;51.690;5.186;2022-09-27T07:35:03;4.80;;;2.33;;
69036;SDS011;58547;51.690;5.186;2022-09-27T07:37:33;8.15;;;3.20;;
69036;SDS011;58547;51.690;5.186;2022-09-27T07:40:00;3.78;;;2.65;;
69036;SDS011;58547;51.690;5.186;2022-09-27T07:42:26;10.35;;;4.95;;
69036;SDS011;58547;51.690;5.186;2022-09-27T07:44:55;11.05;;;5.85;;
69036;SDS011;58547;51.690;5.186;2022-09-27T07:47:21;11.75;;;5.63;;
69036;SDS011;58547;51.690;5.186;2022-09-27T07:49:49;7.82;;;5.68;;
69036;SDS011;58547;51.690;5.186;2022-09-27T07:52:15;12.05;;;7.95;;
69036;SDS011;58547;51.690;5.186;2022-09-27T07:54:41;16.77;;;8.60;;
69036;SDS011;58547;51.690;5.186;2022-09-27T07:57:06;15.15;;;8.77;;
69036;SDS011;58547;51.690;5.186;2022-09-27T07:59:32;9.23;;;6.83;;
69036;SDS011;58547;51.690;5.186;2022-09-27T08:01:57;14.83;;;8.40;;
69036;SDS011;58547;51.690;5.186;2022-09-27T08:04:22;10.60;;;7.10;;
69036;SDS011;58547;51.690;5.186;2022-09-27T08:06:47;11.93;;;8.40;;
69036;SDS011;58547;51.690;5.186;2022-09-27T08:09:13;15.18;;;8.32;;
69036;SDS011;58547;51.690;5.186;2022-09-27T08:11:38;16.57;;;11.07;;
69036;SDS011;58547;51.690;5.186;2022-09-27T08:14:03;22.90;;;12.90;;
69036;SDS011;58547;51.690;5.186;2022-09-27T08:16:29;20.17;;;10.57;;
69036;SDS011;58547;51.690;5.186;2022-09-27T08:18:56;14.38;;;7.13;;
69036;SDS011;58547;51.690;5.186;2022-09-27T08:21:22;11.05;;;7.78;;
69036;SDS011;58547;51.690;5.186;2022-09-27T08:23:47;10.57;;;6.60;;
69036;SDS011;58547;51.690;5.186;2022-09-27T08:26:15;10.52;;;6.15;;
69036;SDS011;58547;51.690;5.186;2022-09-27T08:28:41;11.07;;;5.63;;
69036;SDS011;58547;51.690;5.186;2022-09-27T08:31:06;10.30;;;6.97;;
69036;SDS011;58547;51.690;5.186;2022-09-27T08:33:32;18.17;;;6.20;;
69036;SDS011;58547;51.690;5.186;2022-09-27T08:35:57;12.30;;;8.45;;
69036;SDS011;58547;51.690;5.186;2022-09-27T08:38:23;19.25;;;10.35;;
69036;SDS011;58547;51.690;5.186;2022-09-27T08:40:55;10.87;;;6.97;;
69036;SDS011;58547;51.690;5.186;2022-09-27T08:43:30;17.10;;;6.22;;
69036;SDS011;58547;51.690;5.186;2022-09-27T08:46:36;9.48;;;7.20;;
69036;SDS011;58547;51.690;5.186;2022-09-27T08:49:16;7.60;;;4.97;;
69036;SDS011;58547;51.690;5.186;2022-09-27T08:51:45;8.35;;;6.07;;
69036;SDS011;58547;51.690;5.186;2022-09-27T08:54:15;10.05;;;4.93;;
69036;SDS011;58547;51.690;5.186;2022-09-27T08:56:48;11.48;;;5.97;;
69036;SDS011;58547;51.690;5.186;2022-09-27T08:59:18;9.17;;;5.63;;
69036;SDS011;58547;51.690;5.186;2022-09-27T09:01:49;9.00;;;5.97;;
69036;SDS011;58547;51.690;5.186;2022-09-27T09:04:35;10.73;;;6.20;;
69036;SDS011;58547;51.690;5.186;2022-09-27T09:10:06;9.73;;;5.57;;
69036;SDS011;58547;51.690;5.186;2022-09-27T09:30:39;5.70;;;2.95;;
69036;SDS011;58547;51.690;5.186;2022-09-27T09:33:20;5.05;;;2.83;;
69036;SDS011;58547;51.690;5.186;2022-09-27T09:35:54;5.90;;;3.10;;
69036;SDS011;58547;51.690;5.186;2022-09-27T09:40:59;9.85;;;4.90;;
69036;SDS011;58547;51.690;5.186;2022-09-27T09:43:34;10.68;;;4.75;;
69036;SDS011;58547;51.690;5.186;2022-09-27T09:49:09;18.55;;;7.50;;
69036;SDS011;58547;51.690;5.186;2022-09-27T09:51:43;9.40;;;4.93;;
69036;SDS011;58547;51.690;5.186;2022-09-27T09:54:34;11.25;;;5.88;;
69036;SDS011;58547;51.690;5.186;2022-09-27T09:57:14;26.65;;;12.60;;
69036;SDS011;58547;51.690;5.186;2022-09-27T10:00:04;17.80;;;6.68;;
69036;SDS011;58547;51.690;5.186;2022-09-27T10:02:38;6.93;;;3.13;;
69036;SDS011;58547;51.690;5.186;2022-09-27T10:05:09;13.20;;;2.92;;
69036;SDS011;58547;51.690;5.186;2022-09-27T10:07:39;6.18;;;1.77;;
69036;SDS011;58547;51.690;5.186;2022-09-27T10:10:05;4.63;;;2.20;;
69036;SDS011;58547;51.690;5.186;2022-09-27T10:12:32;4.15;;;1.65;;
69036;SDS011;58547;51.690;5.186;2022-09-27T10:15:00;5.68;;;1.70;;
69036;SDS011;58547;51.690;5.186;2022-09-27T10:17:34;4.10;;;1.65;;
69036;SDS011;58547;51.690;5.186;2022-09-27T10:20:03;6.43;;;1.25;;
69036;SDS011;58547;51.690;5.186;2022-09-27T10:22:38;8.18;;;2.65;;
69036;SDS011;58547;51.690;5.186;2022-09-27T10:25:07;13.00;;;5.72;;
69036;SDS011;58547;51.690;5.186;2022-09-27T10:27:47;5.20;;;1.35;;
69036;SDS011;58547;51.690;5.186;2022-09-27T10:30:24;6.05;;;2.38;;
69036;SDS011;58547;51.690;5.186;2022-09-27T10:32:50;15.10;;;7.75;;
69036;SDS011;58547;51.690;5.186;2022-09-27T10:35:31;2.65;;;0.90;;
69036;SDS011;58547;51.690;5.186;2022-09-27T10:38:11;5.97;;;1.33;;
69036;SDS011;58547;51.690;5.186;2022-09-27T10:40:44;4.32;;;1.80;;
69036;SDS011;58547;51.690;5.186;2022-09-27T10:48:32;2.95;;;1.52;;
69036;SDS011;58547;51.690;5.186;2022-09-27T10:51:20;2.85;;;1.27;;
69036;SDS011;58547;51.690;5.186;2022-09-27T10:53:49;4.15;;;1.55;;
69036;SDS011;58547;51.690;5.186;2022-09-27T10:56:28;7.95;;;1.60;;
69036;SDS011;58547;51.690;5.186;2022-09-27T10:58:57;3.60;;;1.10;;
69036;SDS011;58547;51.690;5.186;2022-09-27T11:01:24;3.85;;;2.28;;
69036;SDS011;58547;51.690;5.186;2022-09-27T11:03:52;6.25;;;3.08;;
69036;SDS011;58547;51.690;5.186;2022-09-27T11:08:48;9.63;;;4.70;;
69036;SDS011;58547;51.690;5.186;2022-09-27T11:11:25;6.68;;;2.38;;
69036;SDS011;58547;51.690;5.186;2022-09-27T11:24:24;3.08;;;0.75;;
69036;SDS011;58547;51.690;5.186;2022-09-27T11:27:16;2.67;;;0.90;;
69036;SDS011;58547;51.690;5.186;2022-09-27T11:30:14;2.22;;;1.10;;
69036;SDS011;58547;51.690;5.186;2022-09-27T11:35:43;2.08;;;1.30;;
69036;SDS011;58547;51.690;5.186;2022-09-27T11:38:23;2.78;;;0.80;;
69036;SDS011;58547;51.690;5.186;2022-09-27T11:46:35;1.95;;;0.60;;
69036;SDS011;58547;51.690;5.186;2022-09-27T11:57:03;1.65;;;0.82;;
69036;SDS011;58547;51.690;5.186;2022-09-27T12:02:44;2.40;;;1.02;;
69036;SDS011;58547;51.690;5.186;2022-09-27T12:08:29;4.60;;;0.70;;
69036;SDS011;58547;51.690;5.186;2022-09-27T12:11:09;1.13;;;0.57;;
69036;SDS011;58547;51.690;5.186;2022-09-27T12:13:48;1.83;;;1.02;;
69036;SDS011;58547;51.690;5.186;2022-09-27T12:16:21;2.75;;;1.25;;
69036;SDS011;58547;51.690;5.186;2022-09-27T12:18:49;10.88;;;3.88;;
69036;SDS011;58547;51.690;5.186;2022-09-27T12:21:17;23.40;;;12.05;;
69036;SDS011;58547;51.690;5.186;2022-09-27T12:23:45;2.53;;;1.48;;
69036;SDS011;58547;51.690;5.186;2022-09-27T12:29:11;3.67;;;2.00;;
69036;SDS011;58547;51.690;5.186;2022-09-27T12:34:50;4.82;;;1.40;;
69036;SDS011;58547;51.690;5.186;2022-09-27T12:37:28;3.15;;;2.20;;
69036;SDS011;58547;51.690;5.186;2022-09-27T12:40:02;2.30;;;1.10;;
69036;SDS011;58547;51.690;5.186;2022-09-27T12:42:38;3.35;;;1.45;;
69036;SDS011;58547;51.690;5.186;2022-09-27T12:45:10;4.95;;;1.80;;
69036;SDS011;58547;51.690;5.186;2022-09-27T12:50:32;2.10;;;0.75;;
69036;SDS011;58547;51.690;5.186;2022-09-27T12:56:02;1.58;;;0.95;;
69036;SDS011;58547;51.690;5.186;2022-09-27T13:01:33;1.13;;;0.60;;
69036;SDS011;58547;51.690;5.186;2022-09-27T13:07:47;2.63;;;0.90;;
69036;SDS011;58547;51.690;5.186;2022-09-27T13:12:47;2.72;;;0.75;;
69036;SDS011;58547;51.690;5.186;2022-09-27T13:15:16;4.40;;;0.82;;
69036;SDS011;58547;51.690;5.186;2022-09-27T13:17:47;1.88;;;0.93;;
69036;SDS011;58547;51.690;5.186;2022-09-27T13:22:52;4.10;;;0.90;;
69036;SDS011;58547;51.690;5.186;2022-09-27T13:26:19;2.97;;;1.48;;
69036;SDS011;58547;51.690;5.186;2022-09-27T13:30:52;2.67;;;1.10;;
69036;SDS011;58547;51.690;5.186;2022-09-27T13:36:04;3.10;;;1.40;;
69036;SDS011;58547;51.690;5.186;2022-09-27T13:38:30;4.85;;;1.40;;
69036;SDS011;58547;51.690;5.186;2022-09-27T13:41:04;1.30;;;1.17;;
69036;SDS011;58547;51.690;5.186;2022-09-27T13:43:46;4.65;;;1.30;;
69036;SDS011;58547;51.690;5.186;2022-09-27T13:46:33;2.70;;;1.25;;
69036;SDS011;58547;51.690;5.186;2022-09-27T13:49:02;2.25;;;1.20;;
69036;SDS011;58547;51.690;5.186;2022-09-27T13:51:43;6.53;;;1.90;;
69036;SDS011;58547;51.690;5.186;2022-09-27T13:57:36;9.98;;;5.22;;
69036;SDS011;58547;51.690;5.186;2022-09-27T14:00:20;42.20;;;23.57;;
69036;SDS011;58547;51.690;5.186;2022-09-27T14:05:40;7.32;;;1.70;;
69036;SDS011;58547;51.690;5.186;2022-09-27T14:08:26;5.88;;;2.13;;
69036;SDS011;58547;51.690;5.186;2022-09-27T14:10:56;4.13;;;1.45;;
69036;SDS011;58547;51.690;5.186;2022-09-27T14:13:24;5.82;;;1.30;;
69036;SDS011;58547;51.690;5.186;2022-09-27T14:15:51;3.10;;;1.20;;
69036;SDS011;58547;51.690;5.186;2022-09-27T14:18:18;5.07;;;1.55;;
69036;SDS011;58547;51.690;5.186;2022-09-27T14:20:45;3.97;;;1.20;;
69036;SDS011;58547;51.690;5.186;2022-09-27T14:23:21;5.00;;;1.35;;
69036;SDS011;58547;51.690;5.186;2022-09-27T14:25:50;4.82;;;1.17;;
69036;SDS011;58547;51.690;5.186;2022-09-27T14:28:21;3.33;;;1.42;;
69036;SDS011;58547;51.690;5.186;2022-09-27T14:31:33;3.38;;;1.70;;
69036;SDS011;58547;51.690;5.186;2022-09-27T14:33:40;4.95;;;1.30;;
69036;SDS011;58547;51.690;5.186;2022-09-27T14:36:06;2.22;;;1.10;;
69036;SDS011;58547;51.690;5.186;2022-09-27T14:38:59;3.13;;;1.20;;
69036;SDS011;58547;51.690;5.186;2022-09-27T14:41:25;4.22;;;1.50;;
69036;SDS011;58547;51.690;5.186;2022-09-27T14:43:51;4.90;;;1.60;;
69036;SDS011;58547;51.690;5.186;2022-09-27T14:46:35;4.10;;;1.30;;
69036;SDS011;58547;51.690;5.186;2022-09-27T14:49:10;4.32;;;1.45;;
69036;SDS011;58547;51.690;5.186;2022-09-27T14:51:42;13.75;;;1.70;;
69036;SDS011;58547;51.690;5.186;2022-09-27T14:54:18;5.07;;;2.33;;
69036;SDS011;58547;51.690;5.186;2022-09-27T14:56:46;5.07;;;1.15;;
69036;SDS011;58547;51.690;5.186;2022-09-27T14:59:13;6.88;;;1.55;;
69036;SDS011;58547;51.690;5.186;2022-09-27T15:01:50;1.30;;;1.05;;
69036;SDS011;58547;51.690;5.186;2022-09-27T15:06:43;6.63;;;1.33;;
69036;SDS011;58547;51.690;5.186;2022-09-27T15:09:10;1.95;;;1.00;;
69036;SDS011;58547;51.690;5.186;2022-09-27T15:11:39;2.83;;;1.30;;
69036;SDS011;58547;51.690;5.186;2022-09-27T15:14:05;4.47;;;1.20;;
69036;SDS011;58547;51.690;5.186;2022-09-27T15:16:36;4.70;;;1.42;;
69036;SDS011;58547;51.690;5.186;2022-09-27T15:19:04;4.40;;;1.55;;
69036;SDS011;58547;51.690;5.186;2022-09-27T15:21:37;5.30;;;1.33;;
69036;SDS011;58547;51.690;5.186;2022-09-27T15:24:03;4.50;;;1.33;;
69036;SDS011;58547;51.690;5.186;2022-09-27T15:28:58;2.95;;;1.10;;
69036;SDS011;58547;51.690;5.186;2022-09-27T15:31:27;3.60;;;1.20;;
69036;SDS011;58547;51.690;5.186;2022-09-27T15:33:58;3.03;;;1.23;;
69036;SDS011;58547;51.690;5.186;2022-09-27T15:39:37;5.35;;;1.38;;
69036;SDS011;58547;51.690;5.186;2022-09-27T15:42:10;6.32;;;1.75;;
69036;SDS011;58547;51.690;5.186;2022-09-27T15:44:48;11.23;;;2.08;;
69036;SDS011;58547;51.690;5.186;2022-09-27T15:50:43;4.60;;;1.83;;
69036;SDS011;58547;51.690;5.186;2022-09-27T15:52:50;5.05;;;1.55;;
69036;SDS011;58547;51.690;5.186;2022-09-27T15:55:20;5.97;;;1.52;;
69036;SDS011;58547;51.690;5.186;2022-09-27T15:57:50;5.47;;;2.67;;
69036;SDS011;58547;51.690;5.186;2022-09-27T16:00:18;4.40;;;0.95;;
69036;SDS011;58547;51.690;5.186;2022-09-27T16:05:10;5.60;;;1.38;;
69036;SDS011;58547;51.690;5.186;2022-09-27T16:07:36;6.18;;;1.80;;
69036;SDS011;58547;51.690;5.186;2022-09-27T16:10:04;6.28;;;1.90;;
69036;SDS011;58547;51.690;5.186;2022-09-27T16:12:37;5.40;;;1.70;;
69036;SDS011;58547;51.690;5.186;2022-09-27T16:15:03;9.17;;;1.50;;
69036;SDS011;58547;51.690;5.186;2022-09-27T16:17:29;7.25;;;1.50;;
69036;SDS011;58547;51.690;5.186;2022-09-27T16:19:54;3.20;;;0.97;;
69036;SDS011;58547;51.690;5.186;2022-09-27T16:22:20;3.25;;;1.20;;
69036;SDS011;58547;51.690;5.186;2022-09-27T16:24:45;2.73;;;0.93;;
69036;SDS011;58547;51.690;5.186;2022-09-27T16:27:20;2.97;;;1.15;;
69036;SDS011;58547;51.690;5.186;2022-09-27T16:29:51;3.67;;;1.70;;
69036;SDS011;58547;51.690;5.186;2022-09-27T16:32:17;6.63;;;1.58;;
69036;SDS011;58547;51.690;5.186;2022-09-27T16:34:43;3.22;;;1.80;;
69036;SDS011;58547;51.690;5.186;2022-09-27T16:37:08;3.33;;;1.40;;
69036;SDS011;58547;51.690;5.186;2022-09-27T16:39:35;3.65;;;1.80;;
69036;SDS011;58547;51.690;5.186;2022-09-27T16:42:00;1.65;;;1.02;;
69036;SDS011;58547;51.690;5.186;2022-09-27T16:44:29;7.82;;;1.60;;
69036;SDS011;58547;51.690;5.186;2022-09-27T16:46:55;4.18;;;1.67;;
69036;SDS011;58547;51.690;5.186;2022-09-27T16:49:20;9.13;;;1.20;;
69036;SDS011;58547;51.690;5.186;2022-09-27T16:52:04;2.20;;;1.20;;
69036;SDS011;58547;51.690;5.186;2022-09-27T16:54:29;4.80;;;1.93;;
69036;SDS011;58547;51.690;5.186;2022-09-27T16:56:58;2.67;;;1.05;;
69036;SDS011;58547;51.690;5.186;2022-09-27T16:59:23;6.75;;;1.65;;
69036;SDS011;58547;51.690;5.186;2022-09-27T17:01:49;5.03;;;1.85;;
69036;SDS011;58547;51.690;5.186;2022-09-27T17:04:15;5.13;;;2.47;;
69036;SDS011;58547;51.690;5.186;2022-09-27T17:06:40;4.93;;;1.35;;
69036;SDS011;58547;51.690;5.186;2022-09-27T17:09:06;2.38;;;1.10;;
69036;SDS011;58547;51.690;5.186;2022-09-27T17:11:32;3.80;;;1.10;;
69036;SDS011;58547;51.690;5.186;2022-09-27T17:13:57;5.78;;;1.25;;
69036;SDS011;58547;51.690;5.186;2022-09-27T17:16:23;5.13;;;1.50;;
69036;SDS011;58547;51.690;5.186;2022-09-27T17:18:49;7.95;;;2.40;;
69036;SDS011;58547;51.690;5.186;2022-09-27T17:21:15;6.93;;;2.53;;
69036;SDS011;58547;51.690;5.186;2022-09-27T17:23:41;22.63;;;10.65;;
69036;SDS011;58547;51.690;5.186;2022-09-27T17:26:08;5.72;;;2.40;;
69036;SDS011;58547;51.690;5.186;2022-09-27T17:28:39;5.28;;;1.75;;
69036;SDS011;58547;51.690;5.186;2022-09-27T17:31:06;4.63;;;1.70;;
69036;SDS011;58547;51.690;5.186;2022-09-27T17:33:35;6.30;;;1.85;;
69036;SDS011;58547;51.690;5.186;2022-09-27T17:36:06;4.43;;;1.65;;
69036;SDS011;58547;51.690;5.186;2022-09-27T17:38:32;4.22;;;2.35;;
69036;SDS011;58547;51.690;5.186;2022-09-27T17:40:58;4.68;;;1.65;;
69036;SDS011;58547;51.690;5.186;2022-09-27T17:43:25;5.00;;;1.80;;
69036;SDS011;58547;51.690;5.186;2022-09-27T17:45:51;7.03;;;1.50;;
69036;SDS011;58547;51.690;5.186;2022-09-27T17:48:16;3.80;;;1.70;;
69036;SDS011;58547;51.690;5.186;2022-09-27T17:51:00;5.95;;;2.03;;
69036;SDS011;58547;51.690;5.186;2022-09-27T17:53:25;4.00;;;1.50;;